Elmwood Park, NJ (07407)

4:54 AM EDT on March 28, 2017 (GMT -0400)
Residential | | Change Station

Elev 59 ft 40.91 °N, 74.10 °W | Updated 8 seconds ago

Overcast
Overcast
44.1 °F
Feels Like 44 °F
N
0.7
Wind Variable Wind from North
Gusts 3.1 mph

Today
High -- | Low -- °F
--% Chance of Precip.
Yesterday
High -- | Low -- °F
Precip. -- in
Pressure 29.96 in
Visibility 8.0 miles
Clouds Overcast 600 ft
Windchill 44 °F
Dew Point 44 °F
Humidity 98%
Rainfall 0.07 in
Snow Depth Not available.
6:46 AM 7:17 PM
New Moon, 0% visible
METAR KTEB 280851Z 05004KT 8SM -RA OVC006 07/06 A2995 RMK AO2 SLP143 P0000 60004 T00670056 55003
Pressure 29.96 in
Visibility 8.0 miles
Clouds Overcast 600 ft
Windchill 44 °F
Dew Point 44 °F
Humidity 98%
Rainfall 0.07 in
Snow Depth Not available.
6:46 AM 7:17 PM
New Moon, 0% visible
METAR KTEB 280851Z 05004KT 8SM -RA OVC006 07/06 A2995 RMK AO2 SLP143 P0000 60004 T00670056 55003

Get Severe Weather Alerts

Thanks for signing up!

Be on the lookout for a verification email in your inbox.

You'll start receiving the daily forecast at 8 AM.

×

10-Day Weather Forecast

Almanac

Astronomy

Mar. 28, 2017 Rise Set
Actual Time
Civil Twilight
Nautical Twilight
Astronomical Twilight
Moon
Length of Visible Light
Length of Day
Tomorrow will be .
, % of the Moon is Illuminated

Today's Extremes

State Highs State Lows

Community

WunderPhotos

Upload Photos

1,962,540 photos uploaded!

WunderBlog® & News

Nearby

Air Quality

  Air Quality AQ Index Pollutant
Not available.

Snow Depth

Station Depth Elevation

Earthquake Activity

City Distance Mag. Time & Date
Minimum magnitude displayed is 2.5.

Earthquake Activity

City Distance Mag. Time & Date
Minimum magnitude displayed is 2.5.

Coastal Water Temperatures

Place Temperature

Stations

Nearby Weather Stations

Station Location Temp. Windchill Dew Point Humidity Wind Precip. Elev Updated Type
                   

Watches & Warnings

There are currently no watches in effect.